sensor_id;sensor_type;location;lat;lon;timestamp;P1;durP1;ratioP1;P2;durP2;ratioP2
52668;SDS011;59898;52.786;6.892;2023-06-22T00:00:04;31.67;;;26.60;;
52668;SDS011;59898;52.786;6.892;2023-06-22T00:03:31;33.55;;;27.52;;
52668;SDS011;59898;52.786;6.892;2023-06-22T00:06:52;33.38;;;25.20;;
52668;SDS011;59898;52.786;6.892;2023-06-22T00:10:12;32.75;;;26.90;;
52668;SDS011;59898;52.786;6.892;2023-06-22T00:13:33;29.75;;;24.75;;
52668;SDS011;59898;52.786;6.892;2023-06-22T00:16:54;30.75;;;24.42;;
52668;SDS011;59898;52.786;6.892;2023-06-22T00:20:17;32.45;;;25.50;;
52668;SDS011;59898;52.786;6.892;2023-06-22T00:23:38;26.85;;;23.40;;
52668;SDS011;59898;52.786;6.892;2023-06-22T00:26:58;30.13;;;24.27;;
52668;SDS011;59898;52.786;6.892;2023-06-22T00:30:19;29.70;;;23.63;;
52668;SDS011;59898;52.786;6.892;2023-06-22T00:33:39;26.73;;;23.30;;
52668;SDS011;59898;52.786;6.892;2023-06-22T00:37:00;27.75;;;24.75;;
52668;SDS011;59898;52.786;6.892;2023-06-22T00:40:21;30.63;;;26.20;;
52668;SDS011;59898;52.786;6.892;2023-06-22T00:43:42;31.60;;;26.15;;
52668;SDS011;59898;52.786;6.892;2023-06-22T00:47:03;32.67;;;25.33;;
52668;SDS011;59898;52.786;6.892;2023-06-22T00:50:25;32.67;;;28.08;;
52668;SDS011;59898;52.786;6.892;2023-06-22T00:53:48;33.20;;;28.27;;
52668;SDS011;59898;52.786;6.892;2023-06-22T00:57:09;38.42;;;31.35;;
52668;SDS011;59898;52.786;6.892;2023-06-22T01:00:31;33.42;;;27.52;;
52668;SDS011;59898;52.786;6.892;2023-06-22T01:03:52;28.85;;;25.30;;
52668;SDS011;59898;52.786;6.892;2023-06-22T01:14:15;31.65;;;28.35;;
52668;SDS011;59898;52.786;6.892;2023-06-22T01:17:43;37.97;;;29.80;;
52668;SDS011;59898;52.786;6.892;2023-06-22T01:21:06;33.80;;;28.83;;
52668;SDS011;59898;52.786;6.892;2023-06-22T01:31:42;29.80;;;25.60;;
52668;SDS011;59898;52.786;6.892;2023-06-22T01:35:05;35.22;;;28.88;;
52668;SDS011;59898;52.786;6.892;2023-06-22T01:38:29;31.33;;;26.08;;
52668;SDS011;59898;52.786;6.892;2023-06-22T01:41:50;33.95;;;27.58;;
52668;SDS011;59898;52.786;6.892;2023-06-22T01:45:11;31.13;;;27.77;;
52668;SDS011;59898;52.786;6.892;2023-06-22T01:48:32;34.13;;;30.02;;
52668;SDS011;59898;52.786;6.892;2023-06-22T01:51:53;38.85;;;30.88;;
52668;SDS011;59898;52.786;6.892;2023-06-22T01:55:14;38.42;;;34.28;;
52668;SDS011;59898;52.786;6.892;2023-06-22T01:58:35;34.25;;;27.65;;
52668;SDS011;59898;52.786;6.892;2023-06-22T02:02:04;35.97;;;30.50;;
52668;SDS011;59898;52.786;6.892;2023-06-22T02:05:29;39.47;;;32.78;;
52668;SDS011;59898;52.786;6.892;2023-06-22T02:08:55;41.00;;;34.80;;
52668;SDS011;59898;52.786;6.892;2023-06-22T02:12:21;41.63;;;32.47;;
52668;SDS011;59898;52.786;6.892;2023-06-22T02:15:45;39.38;;;32.22;;
52668;SDS011;59898;52.786;6.892;2023-06-22T02:19:07;40.28;;;31.48;;
52668;SDS011;59898;52.786;6.892;2023-06-22T02:22:28;39.22;;;33.92;;
52668;SDS011;59898;52.786;6.892;2023-06-22T02:25:48;41.97;;;34.55;;
52668;SDS011;59898;52.786;6.892;2023-06-22T02:29:09;41.20;;;34.78;;
52668;SDS011;59898;52.786;6.892;2023-06-22T02:32:29;40.38;;;32.10;;
52668;SDS011;59898;52.786;6.892;2023-06-22T02:35:50;45.42;;;38.38;;
52668;SDS011;59898;52.786;6.892;2023-06-22T02:39:11;38.10;;;32.88;;
52668;SDS011;59898;52.786;6.892;2023-06-22T02:42:31;41.45;;;33.80;;
52668;SDS011;59898;52.786;6.892;2023-06-22T02:45:52;35.97;;;32.08;;
52668;SDS011;59898;52.786;6.892;2023-06-22T02:49:12;41.15;;;34.55;;
52668;SDS011;59898;52.786;6.892;2023-06-22T02:52:33;42.75;;;34.10;;
52668;SDS011;59898;52.786;6.892;2023-06-22T02:55:55;40.47;;;36.25;;
52668;SDS011;59898;52.786;6.892;2023-06-22T02:59:15;45.78;;;35.35;;
52668;SDS011;59898;52.786;6.892;2023-06-22T03:02:36;41.65;;;36.65;;
52668;SDS011;59898;52.786;6.892;2023-06-22T03:05:56;41.58;;;33.83;;
52668;SDS011;59898;52.786;6.892;2023-06-22T03:09:17;45.03;;;35.58;;
52668;SDS011;59898;52.786;6.892;2023-06-22T03:12:38;38.33;;;33.45;;
52668;SDS011;59898;52.786;6.892;2023-06-22T03:15:59;45.97;;;36.80;;
52668;SDS011;59898;52.786;6.892;2023-06-22T03:19:19;44.20;;;35.72;;
52668;SDS011;59898;52.786;6.892;2023-06-22T03:22:41;44.97;;;37.20;;
52668;SDS011;59898;52.786;6.892;2023-06-22T03:26:03;45.00;;;36.38;;
52668;SDS011;59898;52.786;6.892;2023-06-22T03:29:24;40.95;;;35.83;;
52668;SDS011;59898;52.786;6.892;2023-06-22T03:32:45;45.88;;;36.60;;
52668;SDS011;59898;52.786;6.892;2023-06-22T03:36:06;45.20;;;37.58;;
52668;SDS011;59898;52.786;6.892;2023-06-22T03:39:27;43.08;;;37.72;;
52668;SDS011;59898;52.786;6.892;2023-06-22T03:42:47;46.42;;;40.28;;
52668;SDS011;59898;52.786;6.892;2023-06-22T03:46:08;47.92;;;38.10;;
52668;SDS011;59898;52.786;6.892;2023-06-22T03:49:28;53.38;;;39.92;;
52668;SDS011;59898;52.786;6.892;2023-06-22T03:52:49;44.90;;;39.60;;
52668;SDS011;59898;52.786;6.892;2023-06-22T03:56:12;42.38;;;37.25;;
52668;SDS011;59898;52.786;6.892;2023-06-22T03:59:33;47.17;;;38.00;;
52668;SDS011;59898;52.786;6.892;2023-06-22T04:02:53;46.20;;;36.03;;
52668;SDS011;59898;52.786;6.892;2023-06-22T04:06:14;48.83;;;38.22;;
52668;SDS011;59898;52.786;6.892;2023-06-22T04:09:35;43.63;;;36.55;;
52668;SDS011;59898;52.786;6.892;2023-06-22T04:12:56;43.47;;;37.60;;
52668;SDS011;59898;52.786;6.892;2023-06-22T04:16:16;48.15;;;39.15;;
52668;SDS011;59898;52.786;6.892;2023-06-22T04:19:37;44.70;;;36.50;;
52668;SDS011;59898;52.786;6.892;2023-06-22T04:22:57;45.78;;;38.55;;
52668;SDS011;59898;52.786;6.892;2023-06-22T04:26:18;43.75;;;35.90;;
52668;SDS011;59898;52.786;6.892;2023-06-22T04:29:40;41.05;;;35.90;;
52668;SDS011;59898;52.786;6.892;2023-06-22T04:33:08;46.78;;;38.80;;
52668;SDS011;59898;52.786;6.892;2023-06-22T04:36:29;43.28;;;38.55;;
52668;SDS011;59898;52.786;6.892;2023-06-22T04:39:50;42.30;;;37.50;;
52668;SDS011;59898;52.786;6.892;2023-06-22T04:43:11;42.03;;;37.55;;
52668;SDS011;59898;52.786;6.892;2023-06-22T04:46:32;43.78;;;37.40;;
52668;SDS011;59898;52.786;6.892;2023-06-22T04:49:54;47.85;;;36.65;;
52668;SDS011;59898;52.786;6.892;2023-06-22T04:53:14;37.85;;;32.85;;
52668;SDS011;59898;52.786;6.892;2023-06-22T04:56:35;40.28;;;34.47;;
52668;SDS011;59898;52.786;6.892;2023-06-22T04:59:55;43.45;;;35.70;;
52668;SDS011;59898;52.786;6.892;2023-06-22T05:03:16;41.38;;;36.08;;
52668;SDS011;59898;52.786;6.892;2023-06-22T05:06:38;41.70;;;36.75;;
52668;SDS011;59898;52.786;6.892;2023-06-22T05:10:00;40.72;;;31.55;;
52668;SDS011;59898;52.786;6.892;2023-06-22T05:13:21;39.95;;;34.45;;
52668;SDS011;59898;52.786;6.892;2023-06-22T05:16:42;42.47;;;35.65;;
52668;SDS011;59898;52.786;6.892;2023-06-22T05:20:03;43.10;;;33.67;;
52668;SDS011;59898;52.786;6.892;2023-06-22T05:23:26;43.83;;;37.20;;
52668;SDS011;59898;52.786;6.892;2023-06-22T05:26:46;41.10;;;35.00;;
52668;SDS011;59898;52.786;6.892;2023-06-22T05:30:07;40.53;;;35.28;;
52668;SDS011;59898;52.786;6.892;2023-06-22T05:33:28;42.85;;;35.72;;
52668;SDS011;59898;52.786;6.892;2023-06-22T05:36:49;39.63;;;31.63;;
52668;SDS011;59898;52.786;6.892;2023-06-22T05:40:10;38.58;;;32.92;;
52668;SDS011;59898;52.786;6.892;2023-06-22T05:43:31;41.38;;;33.10;;
52668;SDS011;59898;52.786;6.892;2023-06-22T05:46:51;38.80;;;34.58;;
52668;SDS011;59898;52.786;6.892;2023-06-22T05:50:12;36.95;;;30.75;;
52668;SDS011;59898;52.786;6.892;2023-06-22T05:53:32;38.30;;;34.15;;
52668;SDS011;59898;52.786;6.892;2023-06-22T05:56:53;36.03;;;31.83;;
52668;SDS011;59898;52.786;6.892;2023-06-22T06:00:14;34.70;;;29.65;;
52668;SDS011;59898;52.786;6.892;2023-06-22T06:03:35;33.60;;;28.95;;
52668;SDS011;59898;52.786;6.892;2023-06-22T06:07:01;37.40;;;30.85;;
52668;SDS011;59898;52.786;6.892;2023-06-22T06:10:21;37.05;;;31.95;;
52668;SDS011;59898;52.786;6.892;2023-06-22T06:13:42;36.60;;;32.65;;
52668;SDS011;59898;52.786;6.892;2023-06-22T06:17:03;39.10;;;31.23;;
52668;SDS011;59898;52.786;6.892;2023-06-22T06:20:24;38.88;;;33.53;;
52668;SDS011;59898;52.786;6.892;2023-06-22T06:23:46;39.13;;;32.70;;
52668;SDS011;59898;52.786;6.892;2023-06-22T06:27:07;35.08;;;31.30;;
52668;SDS011;59898;52.786;6.892;2023-06-22T06:30:28;30.02;;;26.42;;
52668;SDS011;59898;52.786;6.892;2023-06-22T06:33:48;32.05;;;27.73;;
52668;SDS011;59898;52.786;6.892;2023-06-22T06:37:09;29.77;;;24.48;;
52668;SDS011;59898;52.786;6.892;2023-06-22T06:40:29;29.92;;;25.25;;
52668;SDS011;59898;52.786;6.892;2023-06-22T06:43:50;30.77;;;27.00;;
52668;SDS011;59898;52.786;6.892;2023-06-22T06:47:11;29.88;;;26.67;;
52668;SDS011;59898;52.786;6.892;2023-06-22T06:50:32;31.02;;;26.60;;
52668;SDS011;59898;52.786;6.892;2023-06-22T06:53:53;31.40;;;26.13;;
52668;SDS011;59898;52.786;6.892;2023-06-22T06:57:13;30.55;;;27.25;;
52668;SDS011;59898;52.786;6.892;2023-06-22T07:00:35;26.92;;;24.05;;
52668;SDS011;59898;52.786;6.892;2023-06-22T07:03:56;24.63;;;21.65;;
52668;SDS011;59898;52.786;6.892;2023-06-22T07:07:17;26.48;;;23.25;;
52668;SDS011;59898;52.786;6.892;2023-06-22T07:10:37;25.13;;;22.35;;
52668;SDS011;59898;52.786;6.892;2023-06-22T07:13:58;20.20;;;17.67;;
52668;SDS011;59898;52.786;6.892;2023-06-22T07:17:20;21.17;;;18.95;;
52668;SDS011;59898;52.786;6.892;2023-06-22T07:20:41;19.48;;;16.90;;
52668;SDS011;59898;52.786;6.892;2023-06-22T07:24:01;18.23;;;16.33;;
52668;SDS011;59898;52.786;6.892;2023-06-22T07:27:22;18.23;;;15.52;;
52668;SDS011;59898;52.786;6.892;2023-06-22T07:30:43;20.90;;;17.30;;
52668;SDS011;59898;52.786;6.892;2023-06-22T07:34:03;21.13;;;18.00;;
52668;SDS011;59898;52.786;6.892;2023-06-22T07:37:24;17.52;;;15.25;;
52668;SDS011;59898;52.786;6.892;2023-06-22T07:40:47;18.35;;;16.13;;
52668;SDS011;59898;52.786;6.892;2023-06-22T07:44:08;19.20;;;14.13;;
52668;SDS011;59898;52.786;6.892;2023-06-22T07:47:28;22.20;;;15.35;;
52668;SDS011;59898;52.786;6.892;2023-06-22T07:50:49;17.17;;;14.23;;
52668;SDS011;59898;52.786;6.892;2023-06-22T07:54:10;17.33;;;12.55;;
52668;SDS011;59898;52.786;6.892;2023-06-22T07:57:30;14.32;;;12.07;;
52668;SDS011;59898;52.786;6.892;2023-06-22T08:00:54;14.32;;;12.20;;
52668;SDS011;59898;52.786;6.892;2023-06-22T08:04:14;19.58;;;14.70;;
52668;SDS011;59898;52.786;6.892;2023-06-22T08:07:35;15.27;;;12.07;;
52668;SDS011;59898;52.786;6.892;2023-06-22T08:10:57;14.57;;;12.15;;
52668;SDS011;59898;52.786;6.892;2023-06-22T08:14:18;14.30;;;10.40;;
52668;SDS011;59898;52.786;6.892;2023-06-22T08:17:38;14.50;;;11.45;;
52668;SDS011;59898;52.786;6.892;2023-06-22T08:20:59;12.43;;;10.82;;
52668;SDS011;59898;52.786;6.892;2023-06-22T08:24:20;13.88;;;11.90;;
52668;SDS011;59898;52.786;6.892;2023-06-22T08:27:44;12.98;;;11.60;;
52668;SDS011;59898;52.786;6.892;2023-06-22T08:31:06;15.15;;;11.02;;
52668;SDS011;59898;52.786;6.892;2023-06-22T08:34:26;12.77;;;10.75;;
52668;SDS011;59898;52.786;6.892;2023-06-22T08:37:47;11.70;;;9.55;;
52668;SDS011;59898;52.786;6.892;2023-06-22T08:41:12;12.82;;;11.38;;
52668;SDS011;59898;52.786;6.892;2023-06-22T08:44:32;11.88;;;10.68;;
52668;SDS011;59898;52.786;6.892;2023-06-22T08:47:53;12.63;;;10.85;;
52668;SDS011;59898;52.786;6.892;2023-06-22T08:51:14;12.02;;;9.35;;
52668;SDS011;59898;52.786;6.892;2023-06-22T08:54:34;15.98;;;11.35;;
52668;SDS011;59898;52.786;6.892;2023-06-22T08:57:55;14.13;;;10.00;;
52668;SDS011;59898;52.786;6.892;2023-06-22T09:01:15;13.73;;;9.32;;
52668;SDS011;59898;52.786;6.892;2023-06-22T09:04:36;11.95;;;9.63;;
52668;SDS011;59898;52.786;6.892;2023-06-22T09:07:56;16.23;;;10.93;;
52668;SDS011;59898;52.786;6.892;2023-06-22T09:11:18;12.27;;;10.05;;
52668;SDS011;59898;52.786;6.892;2023-06-22T09:14:39;13.05;;;9.82;;
52668;SDS011;59898;52.786;6.892;2023-06-22T09:17:59;11.75;;;8.75;;
52668;SDS011;59898;52.786;6.892;2023-06-22T09:21:20;12.57;;;9.50;;
52668;SDS011;59898;52.786;6.892;2023-06-22T09:24:41;10.75;;;8.88;;
52668;SDS011;59898;52.786;6.892;2023-06-22T09:28:01;15.02;;;9.30;;
52668;SDS011;59898;52.786;6.892;2023-06-22T09:31:22;9.32;;;8.43;;
52668;SDS011;59898;52.786;6.892;2023-06-22T09:34:45;9.10;;;8.10;;
52668;SDS011;59898;52.786;6.892;2023-06-22T09:38:06;12.95;;;9.32;;
52668;SDS011;59898;52.786;6.892;2023-06-22T09:41:26;10.70;;;9.02;;
52668;SDS011;59898;52.786;6.892;2023-06-22T09:44:47;11.05;;;9.75;;
52668;SDS011;59898;52.786;6.892;2023-06-22T09:48:07;13.18;;;10.05;;
52668;SDS011;59898;52.786;6.892;2023-06-22T09:51:29;9.90;;;8.80;;
52668;SDS011;59898;52.786;6.892;2023-06-22T09:54:50;10.18;;;8.38;;
52668;SDS011;59898;52.786;6.892;2023-06-22T09:58:10;10.10;;;7.90;;
52668;SDS011;59898;52.786;6.892;2023-06-22T10:01:31;8.88;;;7.80;;
52668;SDS011;59898;52.786;6.892;2023-06-22T10:04:51;9.98;;;8.48;;
52668;SDS011;59898;52.786;6.892;2023-06-22T10:08:12;10.98;;;8.98;;
52668;SDS011;59898;52.786;6.892;2023-06-22T10:11:33;11.18;;;8.80;;
52668;SDS011;59898;52.786;6.892;2023-06-22T10:14:55;12.80;;;9.68;;
52668;SDS011;59898;52.786;6.892;2023-06-22T10:18:15;13.38;;;9.82;;
52668;SDS011;59898;52.786;6.892;2023-06-22T10:21:36;10.60;;;7.70;;
52668;SDS011;59898;52.786;6.892;2023-06-22T10:24:57;10.05;;;8.00;;
52668;SDS011;59898;52.786;6.892;2023-06-22T10:28:17;11.57;;;9.00;;
52668;SDS011;59898;52.786;6.892;2023-06-22T10:31:38;9.25;;;8.25;;
52668;SDS011;59898;52.786;6.892;2023-06-22T10:34:58;8.82;;;7.80;;
52668;SDS011;59898;52.786;6.892;2023-06-22T10:38:19;10.70;;;8.65;;
52668;SDS011;59898;52.786;6.892;2023-06-22T10:41:40;9.48;;;7.95;;
52668;SDS011;59898;52.786;6.892;2023-06-22T10:45:00;11.75;;;7.28;;
52668;SDS011;59898;52.786;6.892;2023-06-22T10:48:21;9.93;;;6.93;;
52668;SDS011;59898;52.786;6.892;2023-06-22T10:51:41;10.23;;;8.18;;
52668;SDS011;59898;52.786;6.892;2023-06-22T10:55:02;7.97;;;7.18;;
52668;SDS011;59898;52.786;6.892;2023-06-22T10:58:22;10.15;;;7.72;;
52668;SDS011;59898;52.786;6.892;2023-06-22T11:01:43;11.10;;;7.25;;
52668;SDS011;59898;52.786;6.892;2023-06-22T11:05:04;11.52;;;8.27;;
52668;SDS011;59898;52.786;6.892;2023-06-22T11:08:24;9.73;;;7.72;;
52668;SDS011;59898;52.786;6.892;2023-06-22T11:11:45;7.05;;;6.35;;
52668;SDS011;59898;52.786;6.892;2023-06-22T11:15:10;9.15;;;6.53;;
52668;SDS011;59898;52.786;6.892;2023-06-22T11:18:31;8.68;;;6.85;;
52668;SDS011;59898;52.786;6.892;2023-06-22T11:21:53;8.10;;;7.10;;
52668;SDS011;59898;52.786;6.892;2023-06-22T11:25:14;8.85;;;6.32;;
52668;SDS011;59898;52.786;6.892;2023-06-22T11:28:34;7.45;;;6.47;;
52668;SDS011;59898;52.786;6.892;2023-06-22T11:31:55;8.85;;;5.78;;
52668;SDS011;59898;52.786;6.892;2023-06-22T11:35:15;7.97;;;6.18;;
52668;SDS011;59898;52.786;6.892;2023-06-22T11:38:36;7.55;;;6.40;;
52668;SDS011;59898;52.786;6.892;2023-06-22T11:42:01;8.77;;;6.20;;
52668;SDS011;59898;52.786;6.892;2023-06-22T11:45:22;9.38;;;6.65;;
52668;SDS011;59898;52.786;6.892;2023-06-22T11:48:42;7.30;;;5.93;;
52668;SDS011;59898;52.786;6.892;2023-06-22T11:52:04;8.23;;;6.20;;
52668;SDS011;59898;52.786;6.892;2023-06-22T11:55:25;6.82;;;6.07;;
52668;SDS011;59898;52.786;6.892;2023-06-22T11:58:45;10.73;;;6.60;;
52668;SDS011;59898;52.786;6.892;2023-06-22T12:02:06;8.18;;;6.28;;
52668;SDS011;59898;52.786;6.892;2023-06-22T12:05:29;6.30;;;5.53;;
52668;SDS011;59898;52.786;6.892;2023-06-22T12:08:49;6.75;;;5.25;;
52668;SDS011;59898;52.786;6.892;2023-06-22T12:12:10;7.88;;;5.95;;
52668;SDS011;59898;52.786;6.892;2023-06-22T12:15:30;6.03;;;5.38;;
52668;SDS011;59898;52.786;6.892;2023-06-22T12:18:51;11.23;;;6.57;;
52668;SDS011;59898;52.786;6.892;2023-06-22T12:22:12;8.98;;;6.82;;
52668;SDS011;59898;52.786;6.892;2023-06-22T12:25:32;6.90;;;5.50;;
52668;SDS011;59898;52.786;6.892;2023-06-22T12:28:53;7.00;;;5.28;;
52668;SDS011;59898;52.786;6.892;2023-06-22T12:32:14;6.95;;;5.63;;
52668;SDS011;59898;52.786;6.892;2023-06-22T12:35:34;6.25;;;5.60;;
52668;SDS011;59898;52.786;6.892;2023-06-22T12:38:55;8.30;;;6.65;;
52668;SDS011;59898;52.786;6.892;2023-06-22T12:42:16;8.10;;;5.57;;
52668;SDS011;59898;52.786;6.892;2023-06-22T12:45:36;8.07;;;6.13;;
52668;SDS011;59898;52.786;6.892;2023-06-22T12:48:57;6.50;;;5.70;;
52668;SDS011;59898;52.786;6.892;2023-06-22T12:52:18;8.13;;;5.70;;
52668;SDS011;59898;52.786;6.892;2023-06-22T12:55:38;6.88;;;6.13;;
52668;SDS011;59898;52.786;6.892;2023-06-22T12:58:59;7.15;;;6.30;;
52668;SDS011;59898;52.786;6.892;2023-06-22T13:02:22;7.72;;;5.88;;
52668;SDS011;59898;52.786;6.892;2023-06-22T13:05:42;8.60;;;5.43;;
52668;SDS011;59898;52.786;6.892;2023-06-22T13:09:03;8.25;;;5.85;;
52668;SDS011;59898;52.786;6.892;2023-06-22T13:12:25;8.02;;;5.65;;
52668;SDS011;59898;52.786;6.892;2023-06-22T13:15:45;18.02;;;7.18;;
52668;SDS011;59898;52.786;6.892;2023-06-22T13:19:06;9.13;;;6.40;;
52668;SDS011;59898;52.786;6.892;2023-06-22T13:22:33;8.07;;;5.32;;
52668;SDS011;59898;52.786;6.892;2023-06-22T13:25:59;11.82;;;6.68;;
52668;SDS011;59898;52.786;6.892;2023-06-22T13:29:20;10.70;;;6.50;;
52668;SDS011;59898;52.786;6.892;2023-06-22T13:32:41;6.82;;;6.00;;
52668;SDS011;59898;52.786;6.892;2023-06-22T13:36:02;7.22;;;5.35;;
52668;SDS011;59898;52.786;6.892;2023-06-22T13:39:23;8.55;;;5.90;;
52668;SDS011;59898;52.786;6.892;2023-06-22T13:42:44;6.88;;;5.30;;
52668;SDS011;59898;52.786;6.892;2023-06-22T13:46:04;6.38;;;5.50;;
52668;SDS011;59898;52.786;6.892;2023-06-22T13:49:25;9.10;;;5.97;;
52668;SDS011;59898;52.786;6.892;2023-06-22T13:52:46;7.40;;;5.75;;
52668;SDS011;59898;52.786;6.892;2023-06-22T13:56:06;6.00;;;5.38;;
52668;SDS011;59898;52.786;6.892;2023-06-22T13:59:27;5.20;;;4.70;;
52668;SDS011;59898;52.786;6.892;2023-06-22T14:02:48;8.43;;;5.60;;
52668;SDS011;59898;52.786;6.892;2023-06-22T14:06:08;6.15;;;5.55;;
52668;SDS011;59898;52.786;6.892;2023-06-22T14:09:31;7.60;;;5.10;;
52668;SDS011;59898;52.786;6.892;2023-06-22T14:12:51;6.63;;;5.93;;
52668;SDS011;59898;52.786;6.892;2023-06-22T14:16:13;9.70;;;5.47;;
52668;SDS011;59898;52.786;6.892;2023-06-22T14:19:33;6.63;;;5.38;;
52668;SDS011;59898;52.786;6.892;2023-06-22T14:22:54;6.45;;;5.35;;
52668;SDS011;59898;52.786;6.892;2023-06-22T14:26:15;7.18;;;6.47;;
52668;SDS011;59898;52.786;6.892;2023-06-22T14:29:39;7.60;;;5.88;;
52668;SDS011;59898;52.786;6.892;2023-06-22T14:32:59;10.80;;;7.75;;
52668;SDS011;59898;52.786;6.892;2023-06-22T14:36:20;7.15;;;5.35;;
52668;SDS011;59898;52.786;6.892;2023-06-22T14:39:41;8.65;;;6.35;;
52668;SDS011;59898;52.786;6.892;2023-06-22T14:43:02;10.63;;;5.95;;
52668;SDS011;59898;52.786;6.892;2023-06-22T14:46:22;8.18;;;6.10;;
52668;SDS011;59898;52.786;6.892;2023-06-22T14:49:43;8.30;;;6.45;;
52668;SDS011;59898;52.786;6.892;2023-06-22T14:53:03;6.82;;;6.13;;
52668;SDS011;59898;52.786;6.892;2023-06-22T14:56:24;9.63;;;7.95;;
52668;SDS011;59898;52.786;6.892;2023-06-22T14:59:45;9.63;;;8.20;;
52668;SDS011;59898;52.786;6.892;2023-06-22T15:03:09;16.23;;;11.07;;
52668;SDS011;59898;52.786;6.892;2023-06-22T15:06:36;14.77;;;9.93;;
52668;SDS011;59898;52.786;6.892;2023-06-22T15:09:57;12.25;;;8.98;;
52668;SDS011;59898;52.786;6.892;2023-06-22T15:13:18;12.48;;;9.30;;
52668;SDS011;59898;52.786;6.892;2023-06-22T15:16:38;10.68;;;9.35;;
52668;SDS011;59898;52.786;6.892;2023-06-22T15:19:59;9.32;;;8.23;;
52668;SDS011;59898;52.786;6.892;2023-06-22T15:23:20;13.57;;;10.35;;
52668;SDS011;59898;52.786;6.892;2023-06-22T15:26:40;10.45;;;9.45;;
52668;SDS011;59898;52.786;6.892;2023-06-22T15:30:01;11.68;;;10.43;;
52668;SDS011;59898;52.786;6.892;2023-06-22T15:33:24;11.40;;;8.80;;
52668;SDS011;59898;52.786;6.892;2023-06-22T15:36:45;15.48;;;10.18;;
52668;SDS011;59898;52.786;6.892;2023-06-22T15:40:05;10.73;;;9.35;;
52668;SDS011;59898;52.786;6.892;2023-06-22T15:43:26;13.60;;;11.60;;
52668;SDS011;59898;52.786;6.892;2023-06-22T15:46:47;12.65;;;9.75;;
52668;SDS011;59898;52.786;6.892;2023-06-22T15:50:09;15.20;;;11.70;;
52668;SDS011;59898;52.786;6.892;2023-06-22T15:53:30;14.75;;;9.98;;
52668;SDS011;59898;52.786;6.892;2023-06-22T15:56:50;12.70;;;10.65;;
52668;SDS011;59898;52.786;6.892;2023-06-22T16:00:11;12.88;;;10.80;;
52668;SDS011;59898;52.786;6.892;2023-06-22T16:03:34;11.65;;;10.02;;
52668;SDS011;59898;52.786;6.892;2023-06-22T16:06:54;12.40;;;9.35;;
52668;SDS011;59898;52.786;6.892;2023-06-22T16:10:15;11.23;;;9.68;;
52668;SDS011;59898;52.786;6.892;2023-06-22T16:13:37;15.18;;;9.15;;
52668;SDS011;59898;52.786;6.892;2023-06-22T16:16:59;10.43;;;8.00;;
52668;SDS011;59898;52.786;6.892;2023-06-22T16:20:20;9.57;;;8.55;;
52668;SDS011;59898;52.786;6.892;2023-06-22T16:23:41;13.32;;;9.20;;
52668;SDS011;59898;52.786;6.892;2023-06-22T16:27:02;11.73;;;8.77;;
52668;SDS011;59898;52.786;6.892;2023-06-22T16:30:22;12.98;;;8.75;;
52668;SDS011;59898;52.786;6.892;2023-06-22T16:33:43;9.20;;;7.93;;
52668;SDS011;59898;52.786;6.892;2023-06-22T16:37:07;11.15;;;7.50;;
52668;SDS011;59898;52.786;6.892;2023-06-22T16:40:28;9.10;;;7.60;;
52668;SDS011;59898;52.786;6.892;2023-06-22T16:43:49;9.73;;;6.28;;
52668;SDS011;59898;52.786;6.892;2023-06-22T16:47:09;10.52;;;7.50;;
52668;SDS011;59898;52.786;6.892;2023-06-22T16:50:30;9.45;;;7.82;;
52668;SDS011;59898;52.786;6.892;2023-06-22T16:53:54;8.32;;;7.18;;
52668;SDS011;59898;52.786;6.892;2023-06-22T16:57:17;15.10;;;13.45;;
52668;SDS011;59898;52.786;6.892;2023-06-22T17:00:39;8.80;;;7.47;;
52668;SDS011;59898;52.786;6.892;2023-06-22T17:04:03;9.15;;;7.20;;
52668;SDS011;59898;52.786;6.892;2023-06-22T17:07:26;8.55;;;6.57;;
52668;SDS011;59898;52.786;6.892;2023-06-22T17:10:49;8.02;;;6.35;;
52668;SDS011;59898;52.786;6.892;2023-06-22T17:14:10;6.70;;;5.75;;
52668;SDS011;59898;52.786;6.892;2023-06-22T17:17:31;7.90;;;5.35;;
52668;SDS011;59898;52.786;6.892;2023-06-22T17:20:53;7.63;;;5.53;;
52668;SDS011;59898;52.786;6.892;2023-06-22T17:24:17;6.55;;;5.38;;
52668;SDS011;59898;52.786;6.892;2023-06-22T17:27:38;9.02;;;4.53;;
52668;SDS011;59898;52.786;6.892;2023-06-22T17:31:09;5.07;;;4.35;;
52668;SDS011;59898;52.786;6.892;2023-06-22T17:34:30;6.50;;;4.68;;
52668;SDS011;59898;52.786;6.892;2023-06-22T17:37:55;6.10;;;4.38;;
52668;SDS011;59898;52.786;6.892;2023-06-22T17:41:17;6.82;;;4.05;;
52668;SDS011;59898;52.786;6.892;2023-06-22T17:44:37;4.75;;;3.85;;
52668;SDS011;59898;52.786;6.892;2023-06-22T17:47:58;6.43;;;4.05;;
52668;SDS011;59898;52.786;6.892;2023-06-22T17:51:18;7.00;;;4.05;;
52668;SDS011;59898;52.786;6.892;2023-06-22T17:54:39;7.10;;;3.55;;
52668;SDS011;59898;52.786;6.892;2023-06-22T17:58:00;11.68;;;8.18;;
52668;SDS011;59898;52.786;6.892;2023-06-22T18:04:57;5.88;;;4.47;;
52668;SDS011;59898;52.786;6.892;2023-06-22T18:08:24;5.55;;;4.35;;
52668;SDS011;59898;52.786;6.892;2023-06-22T18:11:47;5.78;;;4.38;;
52668;SDS011;59898;52.786;6.892;2023-06-22T18:18:29;4.70;;;3.53;;
52668;SDS011;59898;52.786;6.892;2023-06-22T18:21:53;7.80;;;4.72;;
52668;SDS011;59898;52.786;6.892;2023-06-22T18:25:14;5.85;;;4.25;;
52668;SDS011;59898;52.786;6.892;2023-06-22T18:28:38;5.65;;;4.53;;
52668;SDS011;59898;52.786;6.892;2023-06-22T18:32:00;4.97;;;3.60;;
52668;SDS011;59898;52.786;6.892;2023-06-22T18:35:21;10.25;;;4.07;;
52668;SDS011;59898;52.786;6.892;2023-06-22T18:38:42;5.00;;;3.50;;
52668;SDS011;59898;52.786;6.892;2023-06-22T18:42:09;4.65;;;3.10;;
52668;SDS011;59898;52.786;6.892;2023-06-22T18:45:29;6.20;;;3.35;;
52668;SDS011;59898;52.786;6.892;2023-06-22T18:48:52;5.22;;;3.58;;
52668;SDS011;59898;52.786;6.892;2023-06-22T18:52:16;4.82;;;3.53;;
52668;SDS011;59898;52.786;6.892;2023-06-22T18:55:44;5.03;;;3.75;;
52668;SDS011;59898;52.786;6.892;2023-06-22T18:59:11;5.25;;;3.88;;
52668;SDS011;59898;52.786;6.892;2023-06-22T19:06:00;6.35;;;4.40;;
52668;SDS011;59898;52.786;6.892;2023-06-22T19:09:21;5.47;;;4.60;;
52668;SDS011;59898;52.786;6.892;2023-06-22T19:12:42;5.70;;;3.72;;
52668;SDS011;59898;52.786;6.892;2023-06-22T19:16:06;7.93;;;4.45;;
52668;SDS011;59898;52.786;6.892;2023-06-22T19:19:33;5.95;;;4.88;;
52668;SDS011;59898;52.786;6.892;2023-06-22T19:22:56;7.50;;;5.28;;
52668;SDS011;59898;52.786;6.892;2023-06-22T19:26:17;5.13;;;4.45;;
52668;SDS011;59898;52.786;6.892;2023-06-22T19:29:39;10.50;;;4.82;;
52668;SDS011;59898;52.786;6.892;2023-06-22T19:33:00;6.38;;;4.57;;
52668;SDS011;59898;52.786;6.892;2023-06-22T19:39:44;8.98;;;5.07;;
52668;SDS011;59898;52.786;6.892;2023-06-22T19:43:05;6.63;;;4.82;;
52668;SDS011;59898;52.786;6.892;2023-06-22T19:46:30;6.43;;;4.68;;
52668;SDS011;59898;52.786;6.892;2023-06-22T19:49:58;7.85;;;5.35;;
52668;SDS011;59898;52.786;6.892;2023-06-22T19:53:19;11.02;;;5.82;;
52668;SDS011;59898;52.786;6.892;2023-06-22T19:56:40;5.30;;;4.60;;
52668;SDS011;59898;52.786;6.892;2023-06-22T20:00:01;8.40;;;5.40;;
52668;SDS011;59898;52.786;6.892;2023-06-22T20:03:37;9.07;;;5.10;;
52668;SDS011;59898;52.786;6.892;2023-06-22T20:07:04;7.50;;;5.78;;
52668;SDS011;59898;52.786;6.892;2023-06-22T20:10:26;8.82;;;5.60;;
52668;SDS011;59898;52.786;6.892;2023-06-22T20:13:48;6.10;;;5.50;;
52668;SDS011;59898;52.786;6.892;2023-06-22T20:17:14;9.68;;;6.10;;
52668;SDS011;59898;52.786;6.892;2023-06-22T20:20:35;8.48;;;5.80;;